Time;durP1;ratioP1;P1;durP2;ratioP2;P2;SDS_P1;SDS_P2;PMS_P1;PMS_P2;Temp;Humidity;BMP_temperature;BMP_pressure;BME280_temperature;BME280_humidity;BME280_pressure;Samples;Min_cycle;Max_cycle;Signal;HPM_P1;HPM_P2
2023/07/10 00:01:28;;;;;;;0.30;0.30;;;19.40;99.90;;;;;;5075873;28;20039;-64
2023/07/10 00:03:54;;;;;;;0.00;0.00;;;19.20;99.90;;;;;;5075817;28;20021;-64
2023/07/10 00:06:20;;;;;;;0.00;0.00;;;19.20;99.90;;;;;;5076269;28;20040;-64
2023/07/10 00:08:46;;;;;;;0.00;0.00;;;19.30;99.90;;;;;;5074646;28;20070;-65
2023/07/10 00:11:31;;;;;;;0.32;0.32;;;19.20;99.90;;;;;;5075462;28;20021;-65
2023/07/10 00:13:57;;;;;;;0.00;0.00;;;18.90;99.90;;;;;;5075618;28;20129;-64
2023/07/10 00:16:24;;;;;;;1.77;0.75;;;19.00;99.90;;;;;;5075807;28;20384;-64
2023/07/10 00:18:50;;;;;;;0.10;0.10;;;19.00;99.90;;;;;;5075531;28;20038;-66
2023/07/10 00:21:19;;;;;;;0.00;0.00;;;19.00;99.90;;;;;;5075784;28;20111;-66
2023/07/10 00:23:46;;;;;;;0.00;0.00;;;19.00;99.90;;;;;;5075432;28;20016;-65
2023/07/10 00:26:25;;;;;;;0.00;0.00;;;19.30;99.90;;;;;;5075212;28;20468;-66
2023/07/10 00:28:54;;;;;;;0.00;0.00;;;19.20;99.90;;;;;;5075606;28;20054;-66
2023/07/10 00:31:21;;;;;;;0.30;0.30;;;19.20;99.90;;;;;;5074353;28;20024;-64
2023/07/10 00:33:47;;;;;;;0.00;0.00;;;19.00;99.90;;;;;;5075405;28;20036;-66
2023/07/10 00:36:33;;;;;;;0.28;0.28;;;19.10;99.90;;;;;;5074352;28;20021;-64
2023/07/10 00:39:12;;;;;;;0.00;0.00;;;19.20;99.90;;;;;;5075542;28;20031;-65
2023/07/10 00:41:40;;;;;;;1.35;0.30;;;18.90;99.90;;;;;;5073712;28;20028;-64
2023/07/10 00:44:07;;;;;;;0.03;0.03;;;18.70;99.90;;;;;;5075152;28;20032;-64
2023/07/10 00:46:41;;;;;;;0.00;0.00;;;18.60;99.90;;;;;;5074553;28;20032;-65
2023/07/10 00:49:45;;;;;;;0.00;0.00;;;18.50;99.90;;;;;;5074991;28;20032;-65
2023/07/10 00:52:28;;;;;;;0.15;0.15;;;18.50;99.90;;;;;;5074965;28;20044;-64
2023/07/10 00:54:57;;;;;;;0.25;0.20;;;18.70;99.90;;;;;;5074610;28;20476;-64
2023/07/10 00:57:35;;;;;;;0.35;0.20;;;18.60;99.90;;;;;;5073824;28;20073;-66
2023/07/10 01:00:19;;;;;;;0.65;0.63;;;18.40;99.90;;;;;;5073722;28;20032;-64
2023/07/10 01:02:46;;;;;;;0.22;0.22;;;18.30;99.90;;;;;;5073767;28;20033;-65
2023/07/10 01:05:12;;;;;;;0.17;0.17;;;18.30;99.90;;;;;;5073489;28;20087;-65
2023/07/10 01:07:48;;;;;;;2.33;0.43;;;18.30;99.90;;;;;;5074927;28;20044;-63
2023/07/10 01:10:14;;;;;;;5.18;1.35;;;18.30;99.90;;;;;;5073207;28;20566;-64
2023/07/10 01:12:43;;;;;;;0.00;0.00;;;18.20;99.90;;;;;;5074656;28;20026;-64
2023/07/10 01:15:11;;;;;;;0.70;0.70;;;18.50;99.90;;;;;;5074662;28;20028;-65
2023/07/10 01:17:37;;;;;;;0.10;0.10;;;18.30;99.90;;;;;;5074492;28;20547;-63
2023/07/10 01:20:39;;;;;;;0.00;0.00;;;18.30;99.90;;;;;;5073493;28;20477;-63
2023/07/10 01:23:06;;;;;;;0.00;0.00;;;18.30;99.90;;;;;;5074510;28;20426;-64
2023/07/10 01:26:06;;;;;;;0.10;0.10;;;18.30;99.90;;;;;;5074155;28;20040;-65
2023/07/10 01:28:36;;;;;;;3.10;2.88;;;18.20;99.90;;;;;;5071293;28;20072;-64
2023/07/10 01:31:12;;;;;;;0.00;0.00;;;18.20;99.90;;;;;;5072406;28;20027;-66
2023/07/10 01:33:53;;;;;;;0.90;0.80;;;18.30;99.90;;;;;;5074250;28;20036;-65
2023/07/10 01:36:22;;;;;;;2.28;0.98;;;18.30;99.90;;;;;;5074240;28;20036;-63
2023/07/10 01:38:55;;;;;;;0.00;0.00;;;18.10;99.90;;;;;;5072589;28;20021;-64
2023/07/10 01:41:29;;;;;;;0.00;0.00;;;18.10;99.90;;;;;;5072848;28;20033;-65
2023/07/10 01:43:55;;;;;;;0.35;0.35;;;18.20;99.90;;;;;;5074056;28;20028;-64
2023/07/10 01:46:27;;;;;;;0.00;0.00;;;18.60;99.90;;;;;;5072747;28;20062;-63
2023/07/10 01:48:57;;;;;;;0.13;0.13;;;18.80;99.90;;;;;;5072648;28;20035;-65
2023/07/10 01:51:23;;;;;;;0.00;0.00;;;18.80;99.90;;;;;;5072941;28;20032;-66
2023/07/10 01:53:50;;;;;;;0.00;0.00;;;18.60;99.90;;;;;;5073567;28;20035;-65
2023/07/10 01:56:18;;;;;;;0.20;0.20;;;18.60;99.90;;;;;;5072587;28;20025;-66
2023/07/10 01:58:44;;;;;;;0.30;0.30;;;18.50;99.90;;;;;;5072401;28;20029;-66
2023/07/10 02:01:10;;;;;;;0.35;0.35;;;18.50;99.90;;;;;;5072710;28;20023;-63
2023/07/10 02:03:36;;;;;;;0.00;0.00;;;18.50;99.90;;;;;;5073332;28;20377;-65
2023/07/10 02:06:03;;;;;;;0.00;0.00;;;18.50;99.90;;;;;;5072508;28;20473;-65
2023/07/10 02:08:30;;;;;;;0.88;0.75;;;18.70;99.90;;;;;;5073203;28;20372;-64
2023/07/10 02:10:56;;;;;;;0.25;0.25;;;18.60;99.90;;;;;;5072501;28;20048;-64
2023/07/10 02:13:25;;;;;;;0.00;0.00;;;18.30;99.90;;;;;;5070158;28;20031;-63
2023/07/10 02:15:51;;;;;;;0.00;0.00;;;18.60;99.90;;;;;;5073175;28;20025;-64
2023/07/10 02:18:17;;;;;;;0.45;0.45;;;18.70;99.90;;;;;;5072154;28;20128;-64
2023/07/10 02:20:44;;;;;;;0.00;0.00;;;18.50;99.90;;;;;;5072083;28;20029;-66
2023/07/10 02:23:09;;;;;;;0.00;0.00;;;18.50;99.90;;;;;;5073347;28;20020;-64
2023/07/10 02:25:35;;;;;;;0.15;0.15;;;18.40;99.90;;;;;;5073010;28;20384;-65
2023/07/10 02:28:01;;;;;;;0.10;0.10;;;18.60;99.90;;;;;;5073213;28;20081;-65
2023/07/10 02:30:27;;;;;;;0.00;0.00;;;18.70;99.90;;;;;;5055124;28;20029;-63
2023/07/10 02:32:52;;;;;;;0.43;0.43;;;19.00;99.90;;;;;;5073472;28;20492;-64
2023/07/10 02:35:19;;;;;;;0.00;0.00;;;19.10;99.90;;;;;;5071580;28;20028;-66
2023/07/10 02:37:45;;;;;;;1.00;0.90;;;19.20;99.90;;;;;;5073012;28;20373;-65
2023/07/10 02:40:11;;;;;;;0.43;0.43;;;19.10;99.90;;;;;;5072993;28;20020;-65
2023/07/10 02:42:36;;;;;;;0.00;0.00;;;18.90;99.90;;;;;;5073096;28;20032;-64
2023/07/10 02:45:03;;;;;;;1.00;0.95;;;18.30;99.90;;;;;;5072939;28;20029;-64
2023/07/10 02:47:29;;;;;;;1.33;1.23;;;18.20;99.90;;;;;;5071468;28;20488;-66
2023/07/10 02:49:55;;;;;;;0.00;0.00;;;18.00;99.90;;;;;;5073070;28;20029;-63
2023/07/10 02:52:20;;;;;;;0.73;0.70;;;17.90;99.90;;;;;;5072650;28;20039;-64
2023/07/10 02:54:46;;;;;;;0.00;0.00;;;17.70;99.90;;;;;;5071782;28;20082;-66
2023/07/10 02:57:12;;;;;;;0.75;0.75;;;17.80;99.90;;;;;;5073160;28;20047;-63
2023/07/10 02:59:38;;;;;;;1.10;1.10;;;17.90;99.90;;;;;;5072575;28;20030;-64
2023/07/10 03:02:04;;;;;;;0.00;0.00;;;17.90;99.90;;;;;;5072776;28;20372;-65
2023/07/10 03:04:30;;;;;;;0.00;0.00;;;17.90;99.90;;;;;;5071205;28;20032;-64
2023/07/10 03:06:55;;;;;;;3.97;1.17;;;18.00;99.90;;;;;;5072624;28;20032;-65
2023/07/10 03:09:21;;;;;;;0.00;0.00;;;17.80;99.90;;;;;;5072692;28;20493;-63
2023/07/10 03:11:47;;;;;;;0.10;0.10;;;17.80;99.90;;;;;;5072100;28;20058;-64
2023/07/10 03:14:13;;;;;;;0.00;0.00;;;17.90;99.90;;;;;;5071486;28;20029;-63
2023/07/10 03:16:39;;;;;;;1.45;0.20;;;17.80;99.90;;;;;;5071138;28;20115;-66
2023/07/10 03:19:05;;;;;;;0.00;0.00;;;17.90;99.90;;;;;;5071626;28;20020;-66
2023/07/10 03:21:31;;;;;;;0.82;0.82;;;17.90;99.90;;;;;;5070716;28;20476;-64
2023/07/10 03:23:57;;;;;;;0.05;0.05;;;18.00;99.90;;;;;;5072506;28;20016;-64
2023/07/10 03:26:23;;;;;;;0.03;0.03;;;17.90;99.90;;;;;;5071323;28;20432;-64
2023/07/10 03:29:02;;;;;;;0.00;0.00;;;18.20;99.90;;;;;;5072489;28;20032;-65
2023/07/10 03:31:28;;;;;;;0.00;0.00;;;18.40;99.90;;;;;;5072547;28;20021;-65
2023/07/10 03:33:54;;;;;;;2.58;0.57;;;18.40;99.90;;;;;;5071893;28;20496;-66
2023/07/10 03:36:20;;;;;;;0.00;0.00;;;18.30;99.90;;;;;;5072436;28;20032;-64
2023/07/10 03:38:46;;;;;;;0.00;0.00;;;18.30;99.90;;;;;;5072385;28;20024;-65
2023/07/10 03:41:11;;;;;;;0.20;0.20;;;18.00;99.90;;;;;;5070994;28;20036;-63
2023/07/10 03:43:37;;;;;;;0.10;0.10;;;18.30;99.90;;;;;;5071868;28;20095;-65
2023/07/10 03:46:03;;;;;;;0.00;0.00;;;18.40;99.90;;;;;;5071894;28;20063;-64
2023/07/10 03:48:29;;;;;;;0.00;0.00;;;18.30;99.90;;;;;;5071984;28;20049;-66
2023/07/10 03:50:54;;;;;;;0.00;0.00;;;18.40;99.90;;;;;;5072133;28;20111;-63
2023/07/10 03:53:20;;;;;;;0.00;0.00;;;18.10;99.90;;;;;;5054419;28;20031;-65
2023/07/10 03:55:51;;;;;;;0.00;0.00;;;17.80;99.90;;;;;;5070831;28;20025;-65
2023/07/10 03:58:21;;;;;;;0.10;0.10;;;17.90;99.90;;;;;;5072416;28;20089;-65
2023/07/10 04:00:47;;;;;;;0.47;0.47;;;17.80;99.90;;;;;;5070594;28;20477;-64
2023/07/10 04:03:13;;;;;;;0.00;0.00;;;17.60;99.90;;;;;;5071908;28;20542;-66
2023/07/10 04:05:42;;;;;;;0.00;0.00;;;17.60;99.90;;;;;;5071816;28;20032;-66
2023/07/10 04:08:07;;;;;;;0.00;0.00;;;17.80;99.90;;;;;;5072038;28;20070;-64
2023/07/10 04:10:36;;;;;;;1.60;0.45;;;17.60;99.90;;;;;;5072459;28;20438;-65
2023/07/10 04:13:01;;;;;;;0.00;0.00;;;17.80;99.90;;;;;;5072197;28;20395;-64
2023/07/10 04:15:27;;;;;;;0.00;0.00;;;17.80;99.90;;;;;;5072605;28;20089;-66
2023/07/10 04:17:53;;;;;;;0.00;0.00;;;17.90;99.90;;;;;;5071724;28;20032;-65
2023/07/10 04:20:18;;;;;;;0.00;0.00;;;18.00;99.90;;;;;;5072130;28;20085;-64
2023/07/10 04:22:44;;;;;;;0.40;0.40;;;18.10;99.90;;;;;;5073270;28;20103;-66
2023/07/10 04:25:10;;;;;;;0.00;0.00;;;18.40;99.90;;;;;;5075520;28;20033;-65
2023/07/10 04:27:36;;;;;;;1.77;0.43;;;18.20;99.90;;;;;;5075623;28;20051;-65
2023/07/10 04:30:01;;;;;;;0.00;0.00;;;18.40;99.90;;;;;;5075464;28;20031;-64
2023/07/10 04:32:27;;;;;;;0.08;0.08;;;18.30;99.90;;;;;;5075101;28;20388;-63
2023/07/10 04:34:53;;;;;;;0.00;0.00;;;18.40;99.90;;;;;;5076087;28;20032;-64
2023/07/10 04:37:19;;;;;;;1.30;1.00;;;18.30;99.90;;;;;;5073944;28;20032;-63
2023/07/10 04:39:44;;;;;;;0.00;0.00;;;18.20;99.90;;;;;;5075559;28;20025;-66
2023/07/10 04:42:10;;;;;;;0.00;0.00;;;18.40;99.90;;;;;;5075186;28;20047;-65
2023/07/10 04:44:36;;;;;;;0.00;0.00;;;18.40;99.90;;;;;;5075252;28;20035;-66
2023/07/10 04:47:02;;;;;;;0.10;0.10;;;18.50;99.90;;;;;;5074840;28;20071;-65
2023/07/10 04:49:28;;;;;;;0.00;0.00;;;18.70;99.90;;;;;;5075476;28;20097;-66
2023/07/10 04:51:53;;;;;;;0.63;0.40;;;18.80;99.90;;;;;;5075028;28;20027;-65
2023/07/10 04:54:19;;;;;;;0.00;0.00;;;18.60;99.90;;;;;;5075117;28;20478;-64
2023/07/10 04:56:46;;;;;;;0.00;0.00;;;18.50;99.90;;;;;;5075290;28;20115;-66
2023/07/10 04:59:12;;;;;;;0.80;0.73;;;18.40;99.90;;;;;;5074782;28;20033;-64
2023/07/10 05:01:38;;;;;;;0.47;0.47;;;18.50;99.90;;;;;;5074810;28;20353;-65
2023/07/10 05:04:03;;;;;;;1.92;1.55;;;18.60;99.90;;;;;;5074681;28;20028;-64
2023/07/10 05:06:30;;;;;;;0.00;0.00;;;18.30;99.90;;;;;;5074972;28;20056;-64
2023/07/10 05:08:58;;;;;;;0.25;0.25;;;18.50;99.90;;;;;;5074717;28;20392;-65
2023/07/10 05:11:27;;;;;;;0.50;0.50;;;18.80;99.90;;;;;;5075130;28;20052;-65
2023/07/10 05:13:53;;;;;;;5.18;0.57;;;18.50;99.90;;;;;;5073176;28;20389;-66
2023/07/10 05:16:20;;;;;;;0.13;0.13;;;18.50;99.90;;;;;;5074386;28;20024;-66
2023/07/10 05:18:45;;;;;;;0.38;0.38;;;18.60;99.90;;;;;;5074567;28;20032;-65
2023/07/10 05:21:11;;;;;;;0.30;0.30;;;18.60;99.90;;;;;;5073454;28;20442;-64
2023/07/10 05:23:37;;;;;;;0.30;0.20;;;18.20;99.90;;;;;;5074364;28;20037;-65
2023/07/10 05:26:05;;;;;;;1.35;0.40;;;18.20;99.90;;;;;;5074602;28;20037;-65
2023/07/10 05:28:32;;;;;;;0.98;0.60;;;18.00;99.90;;;;;;5074193;28;20033;-65
2023/07/10 05:31:00;;;;;;;0.00;0.00;;;18.10;99.90;;;;;;5072952;28;20036;-65
2023/07/10 05:33:26;;;;;;;1.63;0.77;;;18.20;99.90;;;;;;5072606;28;20491;-66
2023/07/10 05:35:54;;;;;;;0.00;0.00;;;18.20;99.90;;;;;;5074248;28;20066;-65
2023/07/10 05:38:23;;;;;;;0.52;0.45;;;18.60;99.90;;;;;;5074252;28;20033;-65
2023/07/10 05:40:49;;;;;;;0.00;0.00;;;18.70;99.90;;;;;;5074352;28;20063;-65
2023/07/10 05:43:15;;;;;;;0.03;0.03;;;18.80;99.90;;;;;;5074255;28;20020;-64
2023/07/10 05:45:40;;;;;;;2.50;1.23;;;19.20;99.90;;;;;;5073566;28;20025;-64
2023/07/10 05:48:07;;;;;;;2.55;0.50;;;19.00;99.90;;;;;;5073810;28;20131;-64
2023/07/10 05:50:33;;;;;;;2.28;1.20;;;18.80;99.90;;;;;;5074105;28;20468;-64
2023/07/10 05:52:59;;;;;;;0.20;0.20;;;18.70;99.90;;;;;;5073737;28;20028;-63
2023/07/10 05:55:25;;;;;;;3.20;1.00;;;18.80;99.90;;;;;;5073854;28;20033;-65
2023/07/10 05:57:51;;;;;;;0.75;0.75;;;18.60;99.90;;;;;;5073763;28;20035;-65
2023/07/10 06:00:17;;;;;;;0.15;0.15;;;18.60;99.90;;;;;;5073496;28;20021;-63
2023/07/10 06:02:42;;;;;;;0.17;0.17;;;18.70;99.90;;;;;;5073764;28;20032;-65
2023/07/10 06:05:08;;;;;;;0.20;0.20;;;18.90;99.90;;;;;;5073668;28;20028;-63
2023/07/10 06:07:34;;;;;;;7.97;1.90;;;18.80;99.90;;;;;;5073628;28;20048;-64
2023/07/10 06:10:00;;;;;;;0.10;0.10;;;18.90;99.90;;;;;;5073581;28;20031;-64
2023/07/10 06:12:26;;;;;;;4.40;1.45;;;18.90;99.90;;;;;;5073543;28;20399;-68
2023/07/10 06:14:51;;;;;;;0.25;0.25;;;19.20;99.90;;;;;;5067082;28;20123;-67
2023/07/10 06:17:17;;;;;;;2.17;1.30;;;19.40;99.90;;;;;;5083131;28;20020;-66
2023/07/10 06:19:43;;;;;;;2.30;1.50;;;19.40;99.90;;;;;;5075515;28;20052;-68
2023/07/10 06:22:12;;;;;;;3.47;2.20;;;19.70;99.90;;;;;;5071768;28;20427;-67
2023/07/10 06:24:38;;;;;;;1.95;1.45;;;19.80;99.90;;;;;;5072836;28;20035;-67
2023/07/10 06:27:05;;;;;;;0.00;0.00;;;19.30;99.90;;;;;;5086549;28;20085;-69
2023/07/10 06:29:33;;;;;;;0.75;0.75;;;19.40;99.90;;;;;;5086297;28;20028;-67
2023/07/10 06:32:00;;;;;;;0.15;0.10;;;19.70;99.90;;;;;;5079692;28;20029;-68
2023/07/10 06:34:25;;;;;;;0.22;0.15;;;19.80;99.90;;;;;;5075339;28;20366;-68
2023/07/10 06:36:51;;;;;;;2.03;0.73;;;19.60;99.90;;;;;;5072684;28;20036;-67
2023/07/10 06:39:17;;;;;;;0.25;0.25;;;20.00;99.90;;;;;;5088188;28;20023;-67
2023/07/10 06:41:43;;;;;;;6.10;1.30;;;20.20;99.90;;;;;;5085554;28;20111;-68
2023/07/10 06:44:12;;;;;;;0.50;0.40;;;20.30;99.90;;;;;;5065407;28;20017;-68
2023/07/10 06:46:38;;;;;;;2.63;1.55;;;20.50;99.90;;;;;;5072747;28;20037;-66
2023/07/10 06:49:03;;;;;;;0.55;0.50;;;20.20;99.90;;;;;;5087599;28;20469;-66
2023/07/10 06:51:29;;;;;;;0.75;0.75;;;20.50;99.90;;;;;;5087028;28;20024;-67
2023/07/10 06:53:55;;;;;;;3.45;0.93;;;20.80;99.90;;;;;;5082543;28;20020;-67
2023/07/10 06:56:21;;;;;;;0.10;0.10;;;20.50;99.90;;;;;;5076029;28;20103;-67
2023/07/10 06:58:47;;;;;;;0.10;0.10;;;20.80;99.90;;;;;;5073194;28;20044;-68
2023/07/10 07:01:13;;;;;;;8.70;1.70;;;21.00;99.90;;;;;;5088242;28;20321;-66
2023/07/10 07:03:40;;;;;;;0.93;0.90;;;20.90;99.90;;;;;;5086020;28;20026;-68
2023/07/10 07:06:07;;;;;;;0.65;0.65;;;20.60;99.90;;;;;;5078671;28;20500;-67
2023/07/10 07:08:33;;;;;;;0.93;0.32;;;20.70;99.90;;;;;;5075285;28;20048;-66
2023/07/10 07:10:59;;;;;;;1.33;1.33;;;20.80;99.90;;;;;;5073042;28;20085;-67
2023/07/10 07:13:26;;;;;;;2.05;1.13;;;20.80;99.90;;;;;;5087543;28;20056;-66
2023/07/10 07:15:54;;;;;;;0.15;0.15;;;20.90;99.90;;;;;;5082138;28;20024;-68
2023/07/10 07:18:21;;;;;;;3.58;2.30;;;20.70;99.90;;;;;;5076692;28;20064;-66
2023/07/10 07:20:47;;;;;;;7.50;0.52;;;20.60;99.90;;;;;;5074017;28;20017;-67
2023/07/10 07:23:14;;;;;;;0.20;0.20;;;20.50;99.90;;;;;;5076472;28;20028;-66
2023/07/10 07:25:43;;;;;;;2.97;1.02;;;20.90;99.90;;;;;;5076966;28;20077;-68
2023/07/10 07:28:10;;;;;;;0.80;0.13;;;21.20;99.90;;;;;;5085951;28;20523;-68
2023/07/10 07:30:36;;;;;;;2.05;1.10;;;21.30;99.90;;;;;;5079771;28;20017;-67
2023/07/10 07:33:02;;;;;;;0.65;0.65;;;21.10;99.90;;;;;;5078303;28;20086;-66
2023/07/10 07:35:28;;;;;;;0.00;0.00;;;21.00;99.90;;;;;;5073460;28;20074;-67
2023/07/10 07:37:54;;;;;;;1.13;0.45;;;21.00;99.90;;;;;;5078821;28;20062;-68
2023/07/10 07:40:20;;;;;;;8.18;1.08;;;21.00;99.90;;;;;;5084961;28;20035;-66
2023/07/10 07:42:46;;;;;;;8.95;1.10;;;20.80;99.90;;;;;;5078476;28;20506;-68
2023/07/10 07:45:14;;;;;;;3.80;0.88;;;21.00;99.90;;;;;;5077725;28;20071;-67
2023/07/10 07:47:40;;;;;;;0.10;0.10;;;20.80;99.90;;;;;;5077909;28;20035;-65
2023/07/10 07:50:10;;;;;;;3.20;1.65;;;21.20;99.90;;;;;;5070541;28;20028;-68
2023/07/10 07:52:35;;;;;;;3.08;0.25;;;21.40;99.90;;;;;;5074470;28;20031;-68
2023/07/10 07:55:03;;;;;;;0.03;0.03;;;21.70;99.90;;;;;;5078858;28;20091;-66
2023/07/10 07:57:28;;;;;;;0.00;0.00;;;21.50;99.90;;;;;;5077670;28;20027;-68
2023/07/10 07:59:54;;;;;;;1.92;0.45;;;21.70;99.90;;;;;;5084096;28;20023;-67
2023/07/10 08:02:20;;;;;;;0.00;0.00;;;21.80;99.90;;;;;;5089978;28;20111;-65
2023/07/10 08:04:46;;;;;;;40.25;0.93;;;22.10;99.90;;;;;;5083441;28;20115;-67
2023/07/10 08:07:11;;;;;;;1.88;1.25;;;22.20;99.90;;;;;;5081414;28;20078;-68
2023/07/10 08:09:37;;;;;;;0.00;0.00;;;22.10;99.90;;;;;;5075746;28;20037;-67
2023/07/10 08:12:03;;;;;;;3.97;0.70;;;22.00;99.90;;;;;;5084663;28;20020;-67
2023/07/10 08:14:29;;;;;;;0.10;0.10;;;21.90;99.90;;;;;;5085495;28;20059;-68
2023/07/10 08:16:55;;;;;;;3.80;0.28;;;21.70;99.90;;;;;;5082633;28;20067;-67
2023/07/10 08:19:21;;;;;;;23.23;0.73;;;22.30;99.90;;;;;;5081674;28;20024;-68
2023/07/10 08:21:47;;;;;;;0.00;0.00;;;22.50;99.90;;;;;;5078317;28;20020;-67
2023/07/10 08:24:13;;;;;;;6.65;0.45;;;23.20;99.90;;;;;;5074387;28;20389;-66
2023/07/10 08:26:39;;;;;;;5.55;0.30;;;23.10;99.90;;;;;;5077275;28;20025;-68
2023/07/10 08:29:28;;;;;;;0.30;0.30;;;22.60;99.90;;;;;;5087078;28;20035;-68
2023/07/10 08:31:58;;;;;;;0.00;0.00;;;22.50;99.90;;;;;;5083003;28;20013;-73
2023/07/10 08:34:28;;;;;;;1.42;1.35;;;22.50;99.90;;;;;;5076434;28;20036;-73
2023/07/10 08:36:54;;;;;;;0.13;0.13;;;22.70;99.90;;;;;;5074990;28;20033;-71
2023/07/10 08:39:24;;;;;;;0.40;0.40;;;22.90;99.90;;;;;;5088955;28;20395;-70
2023/07/10 08:42:02;;;;;;;3.30;0.50;;;22.70;99.90;;;;;;5086281;28;20105;-70
2023/07/10 08:44:35;;;;;;;0.00;0.00;;;22.90;99.90;;;;;;5078864;28;20396;-72
2023/07/10 08:47:12;;;;;;;0.00;0.00;;;23.40;99.90;;;;;;5077301;28;20051;-72
2023/07/10 08:49:43;;;;;;;0.63;0.55;;;24.00;99.90;;;;;;5091774;28;20115;-71
2023/07/10 08:52:15;;;;;;;0.28;0.28;;;23.80;99.90;;;;;;5087148;28;20496;-72
2023/07/10 08:54:44;;;;;;;3.50;0.65;;;23.90;99.90;;;;;;5079906;28;20036;-72
2023/07/10 08:57:16;;;;;;;0.10;0.08;;;23.20;99.90;;;;;;5079454;28;20530;-73
2023/07/10 08:59:59;;;;;;;0.00;0.00;;;23.10;99.90;;;;;;5081075;28;20077;-71
2023/07/10 09:02:34;;;;;;;0.00;0.00;;;23.70;99.90;;;;;;5086991;28;20028;-72
2023/07/10 09:05:07;;;;;;;0.15;0.13;;;23.40;99.90;;;;;;5083258;28;20056;-71
2023/07/10 09:07:42;;;;;;;9.15;0.75;;;23.10;99.90;;;;;;5079406;28;20039;-72
2023/07/10 09:10:16;;;;;;;2.17;1.05;;;23.60;99.90;;;;;;5074438;28;20149;-72
2023/07/10 09:12:53;;;;;;;0.03;0.03;;;23.40;99.90;;;;;;5085921;28;20446;-71
2023/07/10 09:15:32;;;;;;;1.90;0.75;;;23.80;99.90;;;;;;5069128;28;20099;-72
2023/07/10 09:18:13;;;;;;;9.10;0.55;;;23.90;99.90;;;;;;5079657;28;20028;-77
2023/07/10 09:20:40;;;;;;;1.73;1.17;;;24.40;99.90;;;;;;5076033;28;20025;-73
2023/07/10 09:23:23;;;;;;;0.00;0.00;;;24.40;99.40;;;;;;5078358;28;20036;-71
2023/07/10 09:26:12;;;;;;;1.10;0.77;;;24.30;99.70;;;;;;5081082;28;20024;-71
2023/07/10 09:28:39;;;;;;;0.22;0.20;;;24.30;99.30;;;;;;5083877;28;20040;-70
2023/07/10 09:31:08;;;;;;;0.00;0.00;;;24.00;99.90;;;;;;5080305;28;20558;-71
2023/07/10 09:33:49;;;;;;;2.55;0.52;;;24.50;99.90;;;;;;5073214;28;20036;-71
2023/07/10 09:36:18;;;;;;;0.47;0.47;;;24.80;99.90;;;;;;5073369;28;20040;-68
2023/07/10 09:38:49;;;;;;;1.38;0.25;;;24.40;99.00;;;;;;5076292;28;20050;-69
2023/07/10 09:41:26;;;;;;;0.60;0.55;;;24.60;98.20;;;;;;5079073;28;20063;-69
2023/07/10 09:44:02;;;;;;;0.38;0.20;;;24.10;99.20;;;;;;5064722;28;20036;-68
2023/07/10 09:46:35;;;;;;;1.55;0.17;;;24.40;99.90;;;;;;5079020;28;20033;-66
2023/07/10 09:49:09;;;;;;;0.05;0.05;;;24.20;99.50;;;;;;5075218;28;20039;-66
2023/07/10 09:51:36;;;;;;;0.00;0.00;;;24.70;99.40;;;;;;5077670;28;20078;-65
2023/07/10 09:54:07;;;;;;;0.70;0.30;;;24.90;98.80;;;;;;5074492;28;20487;-65
2023/07/10 09:56:36;;;;;;;3.20;0.20;;;25.40;97.80;;;;;;5081514;28;20017;-64
2023/07/10 09:59:15;;;;;;;0.00;0.00;;;25.60;98.30;;;;;;5075852;28;20020;-64
2023/07/10 10:01:42;;;;;;;0.10;0.10;;;25.60;97.80;;;;;;5073970;28;20441;-65
2023/07/10 10:04:10;;;;;;;3.03;0.77;;;25.50;96.90;;;;;;5076008;28;20031;-64
2023/07/10 10:06:41;;;;;;;0.00;0.00;;;25.40;96.60;;;;;;5074810;28;20024;-64
2023/07/10 10:09:22;;;;;;;1.17;0.70;;;24.90;97.40;;;;;;5081455;28;20124;-64
2023/07/10 10:11:52;;;;;;;0.05;0.05;;;24.70;97.60;;;;;;5072792;28;20038;-65
2023/07/10 10:14:39;;;;;;;0.25;0.25;;;25.20;98.20;;;;;;5077952;28;20111;-63
2023/07/10 10:17:09;;;;;;;0.08;0.08;;;25.80;96.60;;;;;;5071722;28;20032;-65
2023/07/10 10:19:38;;;;;;;0.00;0.00;;;25.90;95.60;;;;;;5075283;28;20020;-65
2023/07/10 10:22:12;;;;;;;0.30;0.30;;;25.90;96.00;;;;;;5075006;28;20511;-64
2023/07/10 10:24:38;;;;;;;3.15;1.15;;;25.30;96.70;;;;;;5078337;28;20039;-63
2023/07/10 10:27:19;;;;;;;0.98;0.82;;;24.90;97.00;;;;;;5077867;28;20414;-65
2023/07/10 10:30:09;;;;;;;0.00;0.00;;;24.90;97.50;;;;;;5088576;28;20040;-64
2023/07/10 10:32:59;;;;;;;0.55;0.32;;;25.00;97.10;;;;;;5061677;28;20107;-63
2023/07/10 10:35:48;;;;;;;0.63;0.43;;;25.10;97.00;;;;;;5072727;28;20013;-65
2023/07/10 10:38:20;;;;;;;0.65;0.40;;;25.10;97.00;;;;;;5071784;28;20089;-64
2023/07/10 10:41:15;;;;;;;0.10;0.10;;;25.70;96.60;;;;;;5073221;28;20435;-64
2023/07/10 10:43:43;;;;;;;0.35;0.35;;;25.60;97.30;;;;;;5071663;28;20124;-65
2023/07/10 10:46:15;;;;;;;2.05;0.47;;;26.20;95.90;;;;;;5072756;28;20062;-65
2023/07/10 10:48:44;;;;;;;0.45;0.35;;;26.30;96.10;;;;;;5072812;28;20048;-65
2023/07/10 10:51:42;;;;;;;0.00;0.00;;;25.40;95.90;;;;;;5072683;28;20458;-63
2023/07/10 10:54:31;;;;;;;0.00;0.00;;;25.30;96.80;;;;;;5072429;28;20040;-64
2023/07/10 10:57:12;;;;;;;1.95;0.88;;;25.50;97.00;;;;;;5072959;28;20528;-64
2023/07/10 11:00:05;;;;;;;0.00;0.00;;;26.10;96.40;;;;;;5072888;28;20111;-64
2023/07/10 11:02:36;;;;;;;25.27;0.88;;;26.00;95.90;;;;;;5072374;28;20283;-63
2023/07/10 11:05:47;;;;;;;0.10;0.10;;;25.70;95.90;;;;;;5072959;28;20119;-68
2023/07/10 11:08:21;;;;;;;1.60;0.20;;;25.80;97.10;;;;;;5070228;28;20052;-66
2023/07/10 11:10:49;;;;;;;0.10;0.10;;;26.10;96.60;;;;;;5071275;28;20111;-66
2023/07/10 11:13:23;;;;;;;0.00;0.00;;;26.40;96.00;;;;;;5072652;28;20094;-65
2023/07/10 11:15:48;;;;;;;0.28;0.22;;;26.20;96.40;;;;;;5071929;28;20480;-65
2023/07/10 11:18:15;;;;;;;2.45;0.50;;;25.70;96.90;;;;;;5071198;28;20045;-66
2023/07/10 11:20:41;;;;;;;0.00;0.00;;;25.30;97.20;;;;;;5072734;28;20526;-66
2023/07/10 11:23:27;;;;;;;0.43;0.28;;;25.30;97.40;;;;;;5072421;28;20107;-64
2023/07/10 11:26:12;;;;;;;0.00;0.00;;;25.40;97.00;;;;;;5072371;28;20024;-66
2023/07/10 11:28:53;;;;;;;1.85;0.22;;;25.60;97.10;;;;;;5072331;28;20036;-65
2023/07/10 11:31:34;;;;;;;2.00;0.70;;;26.00;96.00;;;;;;5073196;28;20494;-64
2023/07/10 11:34:06;;;;;;;0.55;0.55;;;26.00;96.70;;;;;;5075377;28;20024;-64
2023/07/10 11:36:39;;;;;;;0.60;0.40;;;26.10;96.00;;;;;;5075169;28;20054;-63
2023/07/10 11:39:11;;;;;;;0.60;0.20;;;26.60;95.70;;;;;;5075515;28;20434;-63
2023/07/10 11:41:43;;;;;;;0.00;0.00;;;27.30;94.70;;;;;;5076449;28;20036;-65
2023/07/10 11:44:19;;;;;;;7.80;0.25;;;27.20;95.00;;;;;;5076400;28;20401;-66
2023/07/10 11:46:57;;;;;;;0.00;0.00;;;26.60;95.40;;;;;;5076449;28;20120;-65
2023/07/10 11:49:27;;;;;;;0.00;0.00;;;26.90;95.60;;;;;;5075225;28;20054;-66
2023/07/10 11:52:09;;;;;;;0.20;0.17;;;27.30;95.20;;;;;;5076472;28;20048;-66
2023/07/10 11:54:39;;;;;;;0.85;0.70;;;27.80;94.20;;;;;;5076347;28;20033;-66
2023/07/10 11:57:08;;;;;;;0.08;0.08;;;27.30;94.00;;;;;;5076278;28;20031;-68
2023/07/10 11:59:46;;;;;;;0.10;0.10;;;27.10;95.10;;;;;;5076174;28;20029;-65
2023/07/10 12:02:21;;;;;;;0.43;0.20;;;27.20;95.00;;;;;;5075718;28;20036;-66
2023/07/10 12:04:47;;;;;;;0.00;0.00;;;27.50;94.20;;;;;;5076165;28;20027;-68
2023/07/10 12:07:12;;;;;;;0.00;0.00;;;27.50;94.30;;;;;;5076050;28;20407;-68
2023/07/10 12:09:38;;;;;;;0.00;0.00;;;27.80;93.80;;;;;;5075985;28;20071;-67
2023/07/10 12:12:11;;;;;;;0.45;0.08;;;28.50;93.60;;;;;;5075927;28;20093;-68
2023/07/10 12:14:38;;;;;;;0.20;0.20;;;28.00;93.30;;;;;;5075648;28;20031;-66
2023/07/10 12:17:10;;;;;;;0.30;0.30;;;27.70;93.10;;;;;;5075848;28;20373;-66
2023/07/10 12:19:38;;;;;;;1.63;0.52;;;27.00;93.10;;;;;;5075898;28;20485;-67
2023/07/10 12:22:23;;;;;;;0.10;0.10;;;26.80;93.80;;;;;;5075658;28;20499;-66
2023/07/10 12:25:00;;;;;;;0.15;0.10;;;26.60;94.20;;;;;;5075683;28;20025;-66
2023/07/10 12:27:35;;;;;;;0.00;0.00;;;26.80;94.30;;;;;;5075806;28;20024;-65
2023/07/10 12:30:03;;;;;;;0.70;0.52;;;27.10;94.40;;;;;;5075666;28;20032;-66
2023/07/10 12:32:33;;;;;;;0.00;0.00;;;26.60;94.00;;;;;;5075234;28;20023;-66
2023/07/10 12:35:00;;;;;;;0.00;0.00;;;26.90;93.90;;;;;;5075614;28;20028;-66
2023/07/10 12:37:27;;;;;;;0.08;0.08;;;27.90;93.60;;;;;;5074313;28;20039;-67
2023/07/10 12:39:52;;;;;;;0.38;0.30;;;27.70;93.10;;;;;;5075656;28;20024;-70
2023/07/10 12:42:30;;;;;;;0.10;0.10;;;27.10;93.60;;;;;;5074656;28;20035;-70
2023/07/10 12:44:56;;;;;;;0.00;0.00;;;26.90;93.60;;;;;;5074515;28;20055;-68
2023/07/10 12:47:22;;;;;;;0.00;0.00;;;26.90;93.60;;;;;;5074301;28;20484;-68
2023/07/10 12:49:54;;;;;;;0.00;0.00;;;27.50;93.80;;;;;;5075197;28;20051;-68
2023/07/10 12:52:23;;;;;;;0.00;0.00;;;27.30;93.50;;;;;;5075106;28;20082;-68
2023/07/10 12:54:52;;;;;;;0.00;0.00;;;26.60;93.10;;;;;;5075415;28;20376;-66
2023/07/10 12:57:27;;;;;;;0.00;0.00;;;26.90;93.30;;;;;;5073646;28;20496;-67
2023/07/10 13:00:07;;;;;;;0.35;0.30;;;27.00;93.30;;;;;;5074995;28;20040;-68